Time;durP1;ratioP1;P1;durP2;ratioP2;P2;SDS_P1;SDS_P2;PMS_P1;PMS_P2;Temp;Humidity;BMP_temperature;BMP_pressure;BME280_temperature;BME280_humidity;BME280_pressure;Samples;Min_cycle;Max_cycle;Signal;HPM_P1;HPM_P2
2023/07/24 00:02:05;;;;;;;7.07;5.20;;;16.90;99.90;;;;;;5053629;28;20053;-73
2023/07/24 00:04:33;;;;;;;6.47;4.90;;;16.90;99.90;;;;;;5054618;28;20056;-73
2023/07/24 00:07:03;;;;;;;8.07;5.82;;;16.90;99.90;;;;;;5036342;28;20045;-74
2023/07/24 00:09:29;;;;;;;8.88;5.55;;;16.90;99.90;;;;;;5020398;28;20477;-73
2023/07/24 00:11:55;;;;;;;6.68;5.93;;;16.80;99.90;;;;;;5038060;28;20056;-78
2023/07/24 00:14:21;;;;;;;7.43;5.70;;;16.80;99.90;;;;;;5054889;28;20048;-78
2023/07/24 00:16:47;;;;;;;8.90;6.07;;;16.80;99.90;;;;;;5057823;28;20105;-78
2023/07/24 00:19:13;;;;;;;7.22;5.35;;;16.80;99.90;;;;;;5056869;28;20483;-78
2023/07/24 00:21:39;;;;;;;9.88;5.32;;;16.80;99.90;;;;;;5038814;28;20041;-78
2023/07/24 00:24:05;;;;;;;11.23;6.32;;;16.80;99.90;;;;;;5023187;28;20067;-78
2023/07/24 00:26:31;;;;;;;8.38;5.85;;;16.80;99.90;;;;;;5023554;28;20045;-78
2023/07/24 00:28:56;;;;;;;6.85;4.43;;;16.80;99.90;;;;;;5053892;28;20048;-78
2023/07/24 00:31:22;;;;;;;10.60;5.57;;;16.80;99.90;;;;;;5053945;28;20420;-78
2023/07/24 00:33:48;;;;;;;9.05;6.60;;;16.70;99.90;;;;;;5035690;28;20081;-78
2023/07/24 00:36:13;;;;;;;8.48;6.38;;;16.70;99.90;;;;;;5053151;28;20041;-77
2023/07/24 00:38:39;;;;;;;7.55;5.68;;;16.70;99.90;;;;;;5035469;28;20065;-77
2023/07/24 00:41:05;;;;;;;8.65;5.82;;;16.70;99.90;;;;;;5036226;28;20120;-77
2023/07/24 00:43:30;;;;;;;8.70;6.13;;;16.70;99.90;;;;;;5053494;28;20124;-77
2023/07/24 00:45:56;;;;;;;7.22;6.03;;;16.70;99.90;;;;;;5019378;28;20446;-78
2023/07/24 00:48:22;;;;;;;11.45;5.95;;;16.60;99.90;;;;;;5052731;28;20158;-77
2023/07/24 00:50:49;;;;;;;7.90;6.35;;;16.60;99.90;;;;;;5036115;28;20056;-78
2023/07/24 00:53:17;;;;;;;7.97;6.00;;;16.60;99.90;;;;;;5053073;28;20063;-77
2023/07/24 00:55:43;;;;;;;6.38;4.13;;;16.60;99.90;;;;;;5052908;28;20114;-77
2023/07/24 00:58:11;;;;;;;8.15;5.88;;;16.60;99.90;;;;;;5035271;28;20048;-77
2023/07/24 01:00:40;;;;;;;9.15;6.13;;;16.60;99.90;;;;;;5053337;28;20052;-76
2023/07/24 01:03:06;;;;;;;8.30;5.95;;;16.50;99.90;;;;;;5053263;28;20393;-76
2023/07/24 01:05:31;;;;;;;9.45;6.68;;;16.50;99.90;;;;;;5052847;28;20045;-77
2023/07/24 01:07:57;;;;;;;8.85;5.80;;;16.50;99.90;;;;;;5052825;28;20079;-77
2023/07/24 01:10:23;;;;;;;9.23;5.75;;;16.50;99.90;;;;;;5052407;28;20415;-77
2023/07/24 01:13:19;;;;;;;9.75;6.82;;;16.60;99.90;;;;;;5035183;28;20465;-77
2023/07/24 01:15:50;;;;;;;8.73;6.57;;;16.60;99.90;;;;;;5034640;28;20049;-77
2023/07/24 01:18:17;;;;;;;7.30;5.63;;;16.70;99.90;;;;;;5053267;28;20136;-77
2023/07/24 01:20:52;;;;;;;15.02;8.43;;;16.70;99.90;;;;;;5034941;28;20045;-76
2023/07/24 01:23:39;;;;;;;8.90;6.50;;;16.80;99.90;;;;;;5052668;28;20563;-77
2023/07/24 01:26:06;;;;;;;13.50;7.60;;;16.80;99.90;;;;;;5052697;28;20433;-77
2023/07/24 01:28:32;;;;;;;8.38;7.43;;;16.70;99.90;;;;;;5052502;28;20055;-77
2023/07/24 01:30:57;;;;;;;12.88;9.00;;;16.70;99.90;;;;;;5052761;28;20128;-77
2023/07/24 01:33:24;;;;;;;11.15;8.43;;;16.80;99.90;;;;;;5052398;28;20120;-76
2023/07/24 01:35:58;;;;;;;10.27;7.95;;;16.80;99.90;;;;;;5052339;28;20095;-78
2023/07/24 01:38:25;;;;;;;14.70;9.30;;;16.80;99.90;;;;;;5052739;28;20462;-77
2023/07/24 01:40:53;;;;;;;11.73;8.32;;;16.70;99.90;;;;;;5052421;28;20057;-77
2023/07/24 01:43:19;;;;;;;10.65;8.20;;;16.70;99.90;;;;;;5052249;28;20048;-77
2023/07/24 01:45:45;;;;;;;13.20;8.77;;;16.70;99.90;;;;;;5052681;28;20037;-77
2023/07/24 01:48:11;;;;;;;9.70;8.57;;;16.70;99.90;;;;;;5052624;28;20052;-77
2023/07/24 01:50:36;;;;;;;14.75;10.68;;;16.70;99.90;;;;;;5052636;28;20051;-77
2023/07/24 01:53:02;;;;;;;15.07;9.45;;;16.70;99.90;;;;;;5052073;28;20045;-77
2023/07/24 01:55:28;;;;;;;12.80;8.93;;;16.60;99.90;;;;;;5052463;28;20048;-77
2023/07/24 01:57:54;;;;;;;10.02;8.93;;;16.70;99.90;;;;;;5052133;28;20041;-77
2023/07/24 02:00:20;;;;;;;11.95;10.20;;;16.70;99.90;;;;;;5053265;28;20128;-77
2023/07/24 02:02:45;;;;;;;12.13;10.82;;;16.60;99.90;;;;;;5038379;28;20041;-77
2023/07/24 02:05:11;;;;;;;12.07;9.75;;;16.60;99.90;;;;;;5056129;28;20044;-78
2023/07/24 02:07:37;;;;;;;12.30;9.45;;;16.70;99.90;;;;;;5038259;28;20045;-77
2023/07/24 02:10:03;;;;;;;8.80;7.72;;;16.60;99.90;;;;;;5055959;28;20512;-77
2023/07/24 02:12:29;;;;;;;11.95;9.45;;;16.60;99.90;;;;;;5055807;28;20036;-77
2023/07/24 02:14:55;;;;;;;10.57;9.20;;;16.70;99.90;;;;;;5055918;28;20061;-78
2023/07/24 02:17:21;;;;;;;11.13;8.68;;;16.70;99.90;;;;;;5055946;28;20132;-78
2023/07/24 02:19:46;;;;;;;11.48;8.45;;;16.70;99.90;;;;;;5055928;28;20080;-77
2023/07/24 02:22:12;;;;;;;11.07;8.90;;;16.70;99.90;;;;;;5055855;28;20501;-78
2023/07/24 02:24:38;;;;;;;13.23;9.93;;;16.70;99.90;;;;;;5055951;28;20052;-78
2023/07/24 02:27:05;;;;;;;9.65;8.38;;;16.70;99.90;;;;;;5055739;28;20090;-78
2023/07/24 02:29:31;;;;;;;15.10;8.57;;;16.70;99.90;;;;;;5055773;28;20052;-77
2023/07/24 02:31:58;;;;;;;10.80;8.48;;;16.70;99.90;;;;;;5055395;28;20056;-78
2023/07/24 02:34:26;;;;;;;10.23;8.57;;;16.60;99.90;;;;;;5055669;28;20061;-78
2023/07/24 02:36:54;;;;;;;11.30;9.23;;;16.60;99.90;;;;;;5055896;28;20091;-79
2023/07/24 02:39:21;;;;;;;9.80;7.95;;;16.70;99.90;;;;;;5055593;28;20041;-77
2023/07/24 02:41:48;;;;;;;9.15;7.28;;;16.70;99.90;;;;;;5055550;28;20503;-78
2023/07/24 02:44:14;;;;;;;10.43;7.85;;;16.70;99.90;;;;;;5055385;28;20503;-78
2023/07/24 02:46:39;;;;;;;11.57;7.53;;;16.70;99.90;;;;;;5037642;28;20045;-77
2023/07/24 02:49:05;;;;;;;11.00;7.90;;;16.70;99.90;;;;;;5055430;28;20373;-78
2023/07/24 02:51:31;;;;;;;10.02;8.65;;;16.60;99.90;;;;;;5055319;28;20053;-78
2023/07/24 02:53:57;;;;;;;8.35;7.55;;;16.60;99.90;;;;;;5038016;28;20127;-77
2023/07/24 02:56:23;;;;;;;8.82;7.53;;;16.70;99.90;;;;;;5037075;28;20073;-78
2023/07/24 02:58:48;;;;;;;9.65;7.55;;;16.60;99.90;;;;;;5037472;28;20049;-77
2023/07/24 03:01:14;;;;;;;7.90;6.35;;;16.60;99.90;;;;;;5055016;28;20049;-77
2023/07/24 03:03:41;;;;;;;10.95;8.27;;;16.60;99.90;;;;;;5055446;28;20051;-76
2023/07/24 03:06:07;;;;;;;8.43;6.95;;;16.70;99.90;;;;;;5055026;28;20450;-77
2023/07/24 03:08:33;;;;;;;8.05;7.25;;;16.70;99.90;;;;;;5055173;28;20086;-77
2023/07/24 03:10:59;;;;;;;9.45;6.88;;;16.70;99.90;;;;;;5054935;28;20041;-77
2023/07/24 03:13:25;;;;;;;9.20;7.82;;;16.60;99.90;;;;;;5053763;28;20041;-77
2023/07/24 03:15:58;;;;;;;7.20;6.47;;;16.60;99.90;;;;;;5055091;28;20060;-77
2023/07/24 03:18:24;;;;;;;10.32;8.40;;;16.60;99.90;;;;;;5054837;28;20045;-77
2023/07/24 03:20:50;;;;;;;8.48;7.55;;;16.60;99.90;;;;;;5054371;28;20541;-77
2023/07/24 03:23:15;;;;;;;11.18;8.23;;;16.50;99.90;;;;;;5054683;28;20045;-77
2023/07/24 03:25:41;;;;;;;9.98;8.40;;;16.60;99.90;;;;;;5054610;28;20091;-77
2023/07/24 03:28:07;;;;;;;10.30;8.02;;;16.50;99.90;;;;;;5037440;28;20045;-77
2023/07/24 03:30:33;;;;;;;11.13;8.77;;;16.50;99.90;;;;;;5038015;28;20041;-78
2023/07/24 03:32:58;;;;;;;10.13;7.90;;;16.50;99.90;;;;;;5037790;28;20128;-76
2023/07/24 03:35:24;;;;;;;8.75;6.45;;;16.50;99.90;;;;;;5054337;28;20090;-77
2023/07/24 03:37:50;;;;;;;11.32;9.07;;;16.50;99.90;;;;;;5054885;28;20040;-77
2023/07/24 03:40:16;;;;;;;7.63;5.68;;;16.50;99.90;;;;;;5054398;28;20041;-77
2023/07/24 03:42:41;;;;;;;8.82;6.68;;;16.40;99.90;;;;;;5037451;28;20056;-77
2023/07/24 03:45:08;;;;;;;12.52;8.95;;;16.50;99.90;;;;;;5054233;28;20048;-77
2023/07/24 03:47:34;;;;;;;8.80;7.63;;;16.40;99.90;;;;;;5054313;28;20072;-77
2023/07/24 03:49:59;;;;;;;8.38;7.38;;;16.50;99.90;;;;;;5053982;28;20041;-77
2023/07/24 03:52:25;;;;;;;9.23;8.23;;;16.50;99.90;;;;;;5054149;28;20041;-77
2023/07/24 03:54:52;;;;;;;9.05;7.28;;;16.50;99.90;;;;;;5053988;28;20081;-77
2023/07/24 03:57:18;;;;;;;10.82;8.45;;;16.50;99.90;;;;;;5054134;28;20479;-77
2023/07/24 03:59:44;;;;;;;10.20;8.00;;;16.50;99.90;;;;;;5054021;28;20520;-74
2023/07/24 04:02:10;;;;;;;7.70;6.40;;;16.50;99.90;;;;;;5054069;28;20045;-76
2023/07/24 04:04:36;;;;;;;9.07;7.93;;;16.60;99.90;;;;;;5054490;28;20049;-77
2023/07/24 04:07:02;;;;;;;12.00;8.57;;;16.60;99.90;;;;;;5053926;28;20492;-76
2023/07/24 04:09:28;;;;;;;9.95;8.68;;;16.60;99.90;;;;;;5036476;28;20128;-76
2023/07/24 04:11:53;;;;;;;10.45;8.95;;;16.60;99.90;;;;;;5053815;28;20088;-77
2023/07/24 04:14:19;;;;;;;9.88;8.73;;;16.70;99.90;;;;;;5054249;28;20049;-76
2023/07/24 04:16:45;;;;;;;9.98;8.70;;;16.70;99.90;;;;;;5053632;28;20564;-77
2023/07/24 04:19:11;;;;;;;10.40;9.30;;;16.70;99.90;;;;;;5054219;28;20041;-76
2023/07/24 04:21:37;;;;;;;10.65;9.27;;;16.70;99.90;;;;;;5036567;28;20456;-76
2023/07/24 04:24:02;;;;;;;9.15;7.53;;;16.70;99.90;;;;;;5019112;28;20051;-76
2023/07/24 04:26:28;;;;;;;11.30;8.13;;;16.80;99.90;;;;;;5053462;28;20044;-76
2023/07/24 04:28:54;;;;;;;8.98;7.18;;;16.80;99.90;;;;;;5054008;28;20131;-76
2023/07/24 04:31:19;;;;;;;10.20;7.90;;;16.80;99.90;;;;;;5036589;28;20134;-76
2023/07/24 04:33:45;;;;;;;8.40;6.32;;;16.80;99.90;;;;;;5035629;28;20128;-76
2023/07/24 04:36:11;;;;;;;8.45;6.88;;;16.80;99.90;;;;;;5053730;28;20198;-76
2023/07/24 04:38:36;;;;;;;8.63;7.00;;;16.80;99.90;;;;;;5053557;28;20041;-76
2023/07/24 04:41:02;;;;;;;8.77;7.88;;;16.80;99.90;;;;;;5035754;28;20049;-76
2023/07/24 04:43:29;;;;;;;7.63;6.88;;;16.80;99.90;;;;;;5035492;28;20500;-76
2023/07/24 04:45:54;;;;;;;12.25;9.38;;;16.80;99.90;;;;;;5053050;28;20041;-76
2023/07/24 04:48:20;;;;;;;9.48;8.32;;;16.80;99.90;;;;;;5035773;28;20055;-77
2023/07/24 04:50:46;;;;;;;8.85;7.95;;;16.90;99.90;;;;;;5035725;28;20130;-76
2023/07/24 04:53:12;;;;;;;10.50;6.95;;;16.90;99.90;;;;;;5053362;28;20071;-76
2023/07/24 04:55:37;;;;;;;9.35;7.50;;;16.90;99.90;;;;;;5052949;28;20037;-76
2023/07/24 04:58:03;;;;;;;8.93;5.70;;;16.90;99.90;;;;;;5053354;28;20045;-76
2023/07/24 05:00:29;;;;;;;9.35;7.70;;;17.00;99.90;;;;;;5019471;28;20098;-76
2023/07/24 05:02:54;;;;;;;8.85;6.95;;;17.00;99.90;;;;;;5052927;28;20045;-76
2023/07/24 05:05:20;;;;;;;9.00;7.57;;;17.00;99.90;;;;;;5053802;28;20213;-77
2023/07/24 05:07:46;;;;;;;8.82;7.13;;;17.10;99.90;;;;;;5018800;28;20490;-76
2023/07/24 05:10:13;;;;;;;9.60;7.38;;;17.10;99.90;;;;;;5052803;28;20056;-76
2023/07/24 05:12:42;;;;;;;8.55;7.40;;;17.10;99.90;;;;;;5053282;28;20057;-75
2023/07/24 05:15:08;;;;;;;7.78;6.82;;;17.10;99.90;;;;;;5052629;28;20138;-76
2023/07/24 05:17:33;;;;;;;12.35;7.68;;;17.20;99.90;;;;;;5052722;28;20063;-76
2023/07/24 05:19:59;;;;;;;11.80;7.43;;;17.20;99.90;;;;;;5053182;28;20053;-76
2023/07/24 05:22:25;;;;;;;10.23;7.85;;;17.00;99.90;;;;;;5052597;28;20512;-76
2023/07/24 05:24:50;;;;;;;8.60;7.13;;;17.30;99.90;;;;;;5053141;28;20045;-76
2023/07/24 05:27:16;;;;;;;11.00;7.13;;;17.30;99.90;;;;;;5034802;28;20493;-76
2023/07/24 05:29:42;;;;;;;7.75;7.00;;;17.40;99.90;;;;;;5052379;28;20049;-76
2023/07/24 05:32:08;;;;;;;9.10;7.13;;;17.40;99.90;;;;;;5034578;28;20072;-76
2023/07/24 05:34:34;;;;;;;11.80;7.35;;;17.50;99.90;;;;;;5034036;28;20056;-77
2023/07/24 05:36:59;;;;;;;11.65;8.02;;;17.50;99.90;;;;;;5052300;28;20151;-77
2023/07/24 05:39:25;;;;;;;10.13;7.47;;;17.50;99.90;;;;;;5052365;28;20366;-76
2023/07/24 05:41:51;;;;;;;8.20;6.93;;;17.60;99.90;;;;;;5052542;28;20116;-76
2023/07/24 05:44:16;;;;;;;7.78;6.68;;;17.60;99.90;;;;;;5034598;28;20411;-76
2023/07/24 05:46:42;;;;;;;8.38;7.25;;;17.70;99.90;;;;;;5052293;28;20051;-76
2023/07/24 05:49:08;;;;;;;9.07;7.25;;;17.70;99.90;;;;;;5034967;28;20116;-76
2023/07/24 05:51:33;;;;;;;11.57;8.20;;;17.80;99.90;;;;;;5052247;28;20501;-76
2023/07/24 05:53:59;;;;;;;7.82;6.63;;;17.80;99.90;;;;;;5001983;28;20370;-77
2023/07/24 05:56:25;;;;;;;11.38;7.95;;;17.90;99.90;;;;;;5052266;28;20087;-77
2023/07/24 05:58:50;;;;;;;10.20;8.23;;;17.90;99.90;;;;;;5052748;28;20052;-77
2023/07/24 06:01:16;;;;;;;7.03;6.32;;;18.00;99.90;;;;;;5052852;28;20409;-77
2023/07/24 06:03:42;;;;;;;10.85;7.18;;;18.00;99.90;;;;;;5034563;28;20386;-76
2023/07/24 06:06:07;;;;;;;8.57;7.25;;;18.00;99.90;;;;;;5034360;28;20041;-77
2023/07/24 06:08:33;;;;;;;10.38;7.30;;;18.00;99.90;;;;;;5052070;28;20052;-76
2023/07/24 06:10:59;;;;;;;10.32;7.95;;;18.10;99.90;;;;;;5052068;28;20053;-76
2023/07/24 06:13:25;;;;;;;8.65;7.63;;;18.10;99.90;;;;;;5034395;28;20175;-76
2023/07/24 06:15:51;;;;;;;10.00;7.20;;;18.10;99.90;;;;;;5034184;28;20525;-76
2023/07/24 06:18:17;;;;;;;10.45;7.97;;;18.10;99.90;;;;;;5052347;28;20049;-76
2023/07/24 06:20:43;;;;;;;10.07;7.68;;;18.10;99.90;;;;;;5034968;28;20107;-76
2023/07/24 06:23:09;;;;;;;10.15;7.82;;;18.20;99.90;;;;;;5034245;28;20132;-76
2023/07/24 06:25:34;;;;;;;14.05;8.93;;;18.20;99.90;;;;;;5018584;28;20358;-76
2023/07/24 06:28:00;;;;;;;10.13;7.80;;;18.30;99.90;;;;;;5034765;28;20071;-76
2023/07/24 06:30:26;;;;;;;11.95;7.95;;;18.30;99.90;;;;;;5033836;28;20444;-76
2023/07/24 06:32:52;;;;;;;9.88;7.97;;;18.40;99.90;;;;;;5051909;28;20132;-76
2023/07/24 06:35:17;;;;;;;8.90;7.30;;;18.40;99.90;;;;;;5052171;28;20088;-76
2023/07/24 06:37:43;;;;;;;10.15;8.02;;;18.50;99.90;;;;;;5052445;28;20068;-76
2023/07/24 06:40:10;;;;;;;10.85;7.43;;;18.50;99.90;;;;;;5051672;28;20041;-77
2023/07/24 06:42:35;;;;;;;10.00;7.13;;;18.60;99.90;;;;;;5051705;28;20059;-76
2023/07/24 06:45:01;;;;;;;10.02;7.70;;;18.60;99.90;;;;;;5051496;28;20437;-76
2023/07/24 06:47:27;;;;;;;8.43;6.68;;;18.70;99.90;;;;;;5053547;28;20064;-75
2023/07/24 06:49:53;;;;;;;7.78;6.57;;;18.80;99.90;;;;;;5055380;28;20072;-76
2023/07/24 06:52:19;;;;;;;8.23;6.43;;;18.90;99.90;;;;;;5037547;28;20076;-76
2023/07/24 06:54:45;;;;;;;9.50;7.47;;;19.00;99.90;;;;;;5021451;28;20135;-77
2023/07/24 06:57:11;;;;;;;9.32;6.78;;;19.10;99.90;;;;;;5037441;28;20482;-76
2023/07/24 06:59:37;;;;;;;10.00;7.22;;;19.30;99.90;;;;;;5037744;28;20084;-76
2023/07/24 07:02:04;;;;;;;9.23;6.90;;;19.30;99.90;;;;;;5038373;28;20049;-77
2023/07/24 07:04:30;;;;;;;9.98;6.70;;;19.40;99.90;;;;;;5054923;28;20047;-74
2023/07/24 07:06:55;;;;;;;9.25;6.70;;;19.40;99.90;;;;;;5055155;28;20045;-73
2023/07/24 07:09:21;;;;;;;9.40;6.70;;;19.50;99.90;;;;;;5037071;28;20041;-74
2023/07/24 07:11:47;;;;;;;10.88;7.45;;;19.50;99.90;;;;;;5054920;28;20076;-73
2023/07/24 07:14:12;;;;;;;10.50;7.03;;;19.60;99.90;;;;;;5055114;28;20064;-74
2023/07/24 07:16:38;;;;;;;7.40;6.60;;;19.60;99.90;;;;;;5054832;28;20107;-77
2023/07/24 07:19:04;;;;;;;8.82;6.68;;;19.70;99.90;;;;;;5054390;28;20496;-77
2023/07/24 07:21:29;;;;;;;10.23;7.35;;;19.70;99.90;;;;;;5054432;28;20084;-77
2023/07/24 07:23:55;;;;;;;8.48;6.68;;;19.70;99.90;;;;;;5036905;28;20049;-77
2023/07/24 07:26:22;;;;;;;9.90;6.70;;;19.70;99.90;;;;;;5054686;28;20339;-77
2023/07/24 07:28:47;;;;;;;7.25;6.28;;;19.80;99.90;;;;;;5054583;28;20044;-77
2023/07/24 07:31:13;;;;;;;11.82;7.50;;;19.90;99.90;;;;;;5037378;28;20496;-77
2023/07/24 07:33:39;;;;;;;10.60;7.82;;;19.90;99.90;;;;;;5036917;28;20045;-77
2023/07/24 07:36:05;;;;;;;8.80;6.68;;;20.00;99.90;;;;;;5054386;28;20540;-77
2023/07/24 07:38:31;;;;;;;10.48;8.18;;;20.00;99.90;;;;;;5054406;28;20052;-77
2023/07/24 07:40:57;;;;;;;10.32;7.22;;;20.10;99.90;;;;;;5054133;28;20489;-77
2023/07/24 07:43:23;;;;;;;12.18;6.90;;;20.20;99.90;;;;;;5054044;28;20055;-77
2023/07/24 07:45:49;;;;;;;9.18;7.70;;;20.30;99.90;;;;;;5054445;28;20041;-77
2023/07/24 07:48:15;;;;;;;12.02;7.60;;;20.30;99.90;;;;;;5036424;28;20107;-77
2023/07/24 07:50:40;;;;;;;9.00;7.25;;;20.40;99.90;;;;;;5054064;28;20041;-77
2023/07/24 07:53:06;;;;;;;9.50;6.93;;;20.40;99.90;;;;;;5019961;28;20049;-77
2023/07/24 07:55:32;;;;;;;10.40;7.97;;;20.50;99.90;;;;;;5053672;28;20049;-76
2023/07/24 07:57:57;;;;;;;9.60;7.15;;;20.50;99.90;;;;;;5053489;28;20468;-76
2023/07/24 08:00:23;;;;;;;12.13;8.15;;;20.60;99.90;;;;;;5053970;28;20056;-69
2023/07/24 08:02:49;;;;;;;11.88;8.40;;;20.60;99.90;;;;;;5053702;28;20492;-77
2023/07/24 08:05:15;;;;;;;8.88;7.43;;;20.60;99.90;;;;;;5053639;28;20049;-75
2023/07/24 08:07:41;;;;;;;10.23;6.68;;;20.70;99.90;;;;;;5053956;28;20047;-75
2023/07/24 08:10:07;;;;;;;11.13;6.68;;;20.60;99.90;;;;;;5053301;28;20045;-74
2023/07/24 08:12:33;;;;;;;10.63;7.97;;;20.50;99.90;;;;;;5053530;28;20128;-75
2023/07/24 08:14:59;;;;;;;11.43;6.95;;;20.40;99.90;;;;;;5035213;28;20091;-75
2023/07/24 08:17:25;;;;;;;13.93;7.20;;;20.40;99.90;;;;;;5035732;28;20084;-75
2023/07/24 08:19:50;;;;;;;10.18;6.88;;;20.30;99.90;;;;;;5054110;28;20037;-75
2023/07/24 08:22:16;;;;;;;15.23;7.97;;;20.40;99.90;;;;;;5019084;28;20085;-75
2023/07/24 08:24:42;;;;;;;9.77;8.18;;;20.50;99.90;;;;;;5035902;28;20178;-76
2023/07/24 08:27:07;;;;;;;11.75;7.47;;;20.50;99.90;;;;;;5053590;28;20041;-75
2023/07/24 08:29:35;;;;;;;8.60;6.57;;;20.50;99.90;;;;;;5053317;28;20501;-75
2023/07/24 08:32:01;;;;;;;9.50;7.05;;;20.50;99.90;;;;;;5052665;28;20067;-75
2023/07/24 08:34:27;;;;;;;13.45;8.13;;;20.60;99.90;;;;;;5036156;28;20470;-75
2023/07/24 08:36:52;;;;;;;9.82;8.18;;;20.70;99.90;;;;;;5053453;28;20438;-76
2023/07/24 08:39:18;;;;;;;11.88;7.90;;;20.80;99.90;;;;;;5053663;28;20045;-75
2023/07/24 08:41:44;;;;;;;10.05;7.40;;;20.90;99.90;;;;;;5053072;28;20068;-75
2023/07/24 08:44:10;;;;;;;12.93;7.82;;;21.00;99.90;;;;;;5053174;28;20072;-75
2023/07/24 08:46:38;;;;;;;12.70;6.97;;;21.00;99.90;;;;;;5053015;28;20043;-75
2023/07/24 08:49:04;;;;;;;8.38;6.65;;;21.10;99.90;;;;;;5053047;28;20045;-75
2023/07/24 08:51:31;;;;;;;16.63;7.80;;;21.10;99.90;;;;;;5053017;28;20075;-76
2023/07/24 08:53:57;;;;;;;7.32;5.70;;;21.00;99.90;;;;;;5035592;28;20055;-76
2023/07/24 08:56:23;;;;;;;15.20;7.97;;;21.00;99.90;;;;;;5052950;28;20112;-75
2023/07/24 08:58:49;;;;;;;9.70;6.93;;;21.10;99.90;;;;;;5052846;28;20484;-76
2023/07/24 09:01:15;;;;;;;11.52;7.18;;;21.30;99.90;;;;;;5052863;28;20167;-76
2023/07/24 09:03:41;;;;;;;13.90;7.45;;;21.40;99.90;;;;;;5052906;28;20159;-75
2023/07/24 09:06:07;;;;;;;13.18;7.88;;;21.60;99.90;;;;;;5035044;28;20045;-75
2023/07/24 09:08:41;;;;;;;9.60;7.50;;;21.80;99.90;;;;;;5035821;28;20057;-75
2023/07/24 09:11:08;;;;;;;10.63;6.63;;;21.90;99.90;;;;;;5034682;28;20041;-75
2023/07/24 09:13:37;;;;;;;9.85;6.75;;;22.00;99.90;;;;;;5035109;28;20052;-75
2023/07/24 09:16:03;;;;;;;10.68;6.55;;;22.00;99.90;;;;;;5034845;28;20051;-75
2023/07/24 09:18:43;;;;;;;9.73;6.38;;;22.00;99.90;;;;;;5052664;28;20120;-75
2023/07/24 09:21:12;;;;;;;10.48;6.55;;;22.10;99.90;;;;;;5052685;28;20114;-75
2023/07/24 09:23:40;;;;;;;9.43;6.43;;;22.30;99.90;;;;;;5052944;28;20131;-76
2023/07/24 09:26:09;;;;;;;7.63;6.30;;;22.50;99.90;;;;;;5035189;28;20473;-75
2023/07/24 09:28:35;;;;;;;11.93;6.25;;;23.00;99.90;;;;;;5052817;28;20049;-75
2023/07/24 09:31:01;;;;;;;8.35;6.32;;;23.70;99.90;;;;;;5052699;28;20128;-75
2023/07/24 09:33:40;;;;;;;11.73;7.00;;;24.60;99.90;;;;;;5034772;28;20060;-76
2023/07/24 09:36:08;;;;;;;8.73;6.22;;;24.80;99.90;;;;;;5034710;28;20538;-74
2023/07/24 09:38:35;;;;;;;7.90;6.00;;;24.90;99.90;;;;;;5034775;28;20068;-75
2023/07/24 09:41:02;;;;;;;9.10;6.13;;;24.60;99.90;;;;;;5018984;28;20136;-75
2023/07/24 09:43:29;;;;;;;8.90;6.05;;;24.50;99.90;;;;;;5018651;28;20052;-74
2023/07/24 09:45:56;;;;;;;8.52;6.47;;;24.60;99.90;;;;;;5034711;28;20087;-74
2023/07/24 09:48:24;;;;;;;7.07;5.63;;;24.90;99.90;;;;;;5052740;28;20152;-74
2023/07/24 09:50:55;;;;;;;7.97;4.93;;;25.30;99.90;;;;;;5035180;28;20048;-74
2023/07/24 09:53:33;;;;;;;8.55;4.80;;;25.90;99.90;;;;;;5052303;28;20045;-73
2023/07/24 09:56:00;;;;;;;10.40;4.68;;;26.30;99.90;;;;;;5052167;28;20127;-75
2023/07/24 09:58:26;;;;;;;5.68;4.75;;;26.70;99.90;;;;;;5052243;28;20040;-75
2023/07/24 10:00:53;;;;;;;6.03;3.60;;;26.40;99.90;;;;;;5052613;28;20607;-75
2023/07/24 10:03:21;;;;;;;5.72;4.10;;;26.10;99.90;;;;;;5052136;28;20049;-75
2023/07/24 10:05:47;;;;;;;4.70;3.72;;;26.10;99.90;;;;;;5052205;28;20115;-75
2023/07/24 10:08:18;;;;;;;6.85;4.00;;;26.50;99.90;;;;;;5034580;28;20108;-75
2023/07/24 10:10:43;;;;;;;6.63;4.68;;;26.60;99.90;;;;;;5051979;28;20049;-74
2023/07/24 10:13:12;;;;;;;5.25;4.10;;;26.30;99.90;;;;;;5052039;28;20045;-75
2023/07/24 10:15:39;;;;;;;6.65;4.68;;;25.90;99.90;;;;;;5033382;28;20502;-74
2023/07/24 10:18:09;;;;;;;7.20;4.10;;;25.40;99.90;;;;;;5051892;28;20480;-75
2023/07/24 10:20:38;;;;;;;6.60;3.85;;;25.70;99.90;;;;;;5051858;28;20107;-74
2023/07/24 10:23:05;;;;;;;5.60;3.80;;;26.00;99.90;;;;;;5055872;28;20049;-75
2023/07/24 10:25:32;;;;;;;8.23;4.07;;;25.60;99.90;;;;;;5056081;28;20075;-75
2023/07/24 10:28:07;;;;;;;5.97;3.80;;;25.60;99.90;;;;;;5055891;28;20056;-73
2023/07/24 10:30:37;;;;;;;6.32;3.75;;;26.30;99.80;;;;;;5055962;28;20052;-74
2023/07/24 10:33:18;;;;;;;7.10;4.25;;;26.90;99.90;;;;;;5038188;28;20172;-73
2023/07/24 10:35:54;;;;;;;5.05;3.95;;;26.90;97.80;;;;;;5055673;28;20051;-74
2023/07/24 10:38:34;;;;;;;4.85;3.83;;;26.60;98.70;;;;;;5055316;28;20441;-74
2023/07/24 10:41:04;;;;;;;5.68;4.07;;;26.20;99.40;;;;;;5038603;28;20060;-74
2023/07/24 10:43:46;;;;;;;5.43;4.28;;;26.30;99.90;;;;;;5055666;28;20082;-73
2023/07/24 10:46:13;;;;;;;6.60;4.18;;;26.10;98.80;;;;;;5056071;28;20069;-74
2023/07/24 10:48:47;;;;;;;5.25;4.05;;;25.70;99.90;;;;;;5037939;28;20454;-74
2023/07/24 10:51:16;;;;;;;9.05;4.93;;;25.30;99.90;;;;;;5037497;28;20059;-73
2023/07/24 10:53:46;;;;;;;6.53;4.60;;;25.00;99.90;;;;;;5055299;28;20053;-73
2023/07/24 10:56:12;;;;;;;6.47;4.63;;;25.60;99.90;;;;;;5055560;28;20045;-73
2023/07/24 10:58:38;;;;;;;5.32;4.38;;;25.80;99.90;;;;;;5055308;28;20132;-73
2023/07/24 11:01:05;;;;;;;6.65;4.15;;;26.10;99.90;;;;;;5037802;28;20080;-73
2023/07/24 11:03:31;;;;;;;7.07;3.95;;;25.80;99.90;;;;;;5037644;28;20052;-74
2023/07/24 11:05:58;;;;;;;5.63;3.80;;;25.90;99.90;;;;;;5055515;28;20052;-73
2023/07/24 11:08:24;;;;;;;8.80;4.07;;;25.60;99.90;;;;;;5055149;28;20048;-73
2023/07/24 11:10:52;;;;;;;8.98;5.30;;;25.40;99.90;;;;;;5054912;28;20048;-73
2023/07/24 11:13:21;;;;;;;7.68;4.45;;;25.20;99.90;;;;;;5054790;28;20049;-73
2023/07/24 11:15:48;;;;;;;6.93;4.57;;;25.00;99.90;;;;;;5037344;28;20085;-73
2023/07/24 11:18:14;;;;;;;7.97;4.78;;;24.90;99.90;;;;;;5054852;28;20049;-73
2023/07/24 11:20:46;;;;;;;6.93;4.28;;;24.60;99.90;;;;;;5054856;28;20052;-72
2023/07/24 11:23:12;;;;;;;8.20;4.17;;;24.80;99.90;;;;;;5037290;28;20106;-73
2023/07/24 11:25:38;;;;;;;5.78;4.75;;;24.70;99.90;;;;;;5055049;28;20041;-73
2023/07/24 11:28:11;;;;;;;6.35;4.38;;;24.60;99.90;;;;;;5054758;28;20504;-75
2023/07/24 11:30:37;;;;;;;6.22;4.25;;;24.50;99.70;;;;;;5036957;28;20052;-73
2023/07/24 11:33:04;;;;;;;5.72;4.35;;;24.50;99.90;;;;;;5054067;28;20055;-74
2023/07/24 11:35:30;;;;;;;6.72;5.05;;;24.40;99.90;;;;;;5036664;28;20041;-74
2023/07/24 11:37:56;;;;;;;6.57;4.30;;;24.40;99.90;;;;;;5054841;28;20064;-73
2023/07/24 11:40:40;;;;;;;9.00;4.80;;;24.30;99.70;;;;;;5055027;28;20124;-73
2023/07/24 11:43:16;;;;;;;7.18;4.32;;;24.20;99.80;;;;;;5054761;28;20102;-73
2023/07/24 11:45:43;;;;;;;7.28;4.28;;;24.30;99.20;;;;;;5036722;28;20114;-73
2023/07/24 11:48:12;;;;;;;5.63;4.22;;;24.30;99.90;;;;;;5054024;28;20049;-72
2023/07/24 11:50:46;;;;;;;5.50;4.30;;;24.40;99.70;;;;;;5037245;28;20060;-73
2023/07/24 11:53:42;;;;;;;7.80;5.22;;;24.40;99.80;;;;;;5054706;28;20053;-73
2023/07/24 11:56:14;;;;;;;6.95;4.78;;;24.40;98.70;;;;;;5019881;28;20075;-73
2023/07/24 11:58:40;;;;;;;5.05;3.90;;;24.50;99.90;;;;;;5054227;28;20114;-73
2023/07/24 12:01:06;;;;;;;6.07;4.88;;;24.40;99.90;;;;;;5053760;28;20049;-73
2023/07/24 12:03:32;;;;;;;5.30;3.97;;;24.40;99.90;;;;;;5054310;28;20046;-73
2023/07/24 12:05:58;;;;;;;5.70;4.13;;;24.40;99.90;;;;;;5036391;28;20417;-74
2023/07/24 12:08:32;;;;;;;8.75;4.82;;;24.20;99.90;;;;;;5054198;28;20041;-73
2023/07/24 12:10:58;;;;;;;6.15;4.70;;;24.10;99.90;;;;;;5054370;28;20045;-73
2023/07/24 12:13:23;;;;;;;8.45;5.75;;;23.90;99.90;;;;;;5035715;28;20418;-73
2023/07/24 12:15:49;;;;;;;6.97;5.68;;;23.80;99.90;;;;;;5054231;28;20049;-73
2023/07/24 12:18:15;;;;;;;6.78;4.63;;;23.70;99.90;;;;;;5036655;28;20458;-74
2023/07/24 12:20:41;;;;;;;8.82;5.57;;;23.50;99.90;;;;;;5054184;28;20064;-73
2023/07/24 12:23:07;;;;;;;8.57;5.78;;;23.40;99.90;;;;;;5054178;28;20477;-74
2023/07/24 12:25:33;;;;;;;8.55;5.20;;;23.40;99.90;;;;;;5019576;28;20500;-74
2023/07/24 12:27:58;;;;;;;7.47;6.15;;;23.30;99.90;;;;;;5053507;28;20099;-73
2023/07/24 12:30:24;;;;;;;8.02;5.50;;;23.40;99.90;;;;;;5053924;28;20048;-76
2023/07/24 12:32:50;;;;;;;7.60;4.47;;;23.50;99.90;;;;;;5053561;28;20123;-75
2023/07/24 12:35:17;;;;;;;9.52;5.30;;;23.70;99.90;;;;;;5053383;28;20083;-73
2023/07/24 12:37:46;;;;;;;8.45;4.93;;;23.80;99.90;;;;;;5053134;28;20053;-74
2023/07/24 12:40:12;;;;;;;6.55;4.85;;;23.80;99.90;;;;;;5053408;28;20045;-73
2023/07/24 12:42:38;;;;;;;7.57;4.80;;;23.70;99.90;;;;;;5053283;28;20094;-72